TimeEST,TemperatureF,Dew PointF,Humidity,Sea Level PressureIn,VisibilityMPH,Wind Direction,Wind SpeedMPH,Gust SpeedMPH,PrecipitationIn,Events,Conditions,WindDirDegrees,DateUTC
12:00 AM,71.6,62.6,73,29.93,6.2,West,9.2,-,N/A,,Scattered Clouds,270,2012-11-22 05:00:00
1:00 AM,72,63,67,29.93,9,WNW,13.8,,,,Partly Cloudy,290,2012-11-22 06:00:00
1:00 AM,71.6,62.6,73,29.92,6.2,WNW,13.8,-,N/A,,Scattered Clouds,290,2012-11-22 06:00:00
2:00 AM,71.6,62.6,73,-9999,-9999.0,North,-9999.0,-,N/A,,Scattered Clouds,0,2012-11-22 07:00:00
3:00 AM,71.6,62.6,73,-9999,6.2,WNW,19.6,-,N/A,,Partly Cloudy,290,2012-11-22 08:00:00
4:00 AM,71.6,57.2,60,-9999,6.2,West,18.4,-,N/A,,Partly Cloudy,280,2012-11-22 09:00:00
6:00 AM,71.6,55.4,57,-9999,6.2,West,18.4,-,N/A,,Partly Cloudy,260,2012-11-22 11:00:00
7:00 AM,71,57,52,29.95,9,WNW,19.6,,,,Partly Cloudy,290,2012-11-22 12:00:00
7:00 AM,71.6,57.2,60,-9999,6.2,WNW,19.6,-,N/A,,Scattered Clouds,290,2012-11-22 12:00:00
8:00 AM,71.6,55.4,57,-9999,6.2,WNW,16.1,-,N/A,,Scattered Clouds,300,2012-11-22 13:00:00
9:00 AM,73.4,55.4,53,-9999,6.2,West,13.8,-,N/A,,Scattered Clouds,270,2012-11-22 14:00:00
10:00 AM,76,58,44,29.99,9,WNW,15.0,,,,Scattered Clouds,290,2012-11-22 15:00:00
10:00 AM,75.2,59.0,57,-9999,6.2,WNW,15.0,-,N/A,,Partly Cloudy,290,2012-11-22 15:00:00
11:00 AM,73.4,57.2,57,-9999,6.2,WNW,17.3,-,N/A,,Partly Cloudy,290,2012-11-22 16:00:00
12:00 PM,73.4,57.2,57,-9999,6.2,WNW,19.6,-,N/A,,Scattered Clouds,290,2012-11-22 17:00:00
1:00 PM,78,59,42,29.95,9,WNW,16.1,,,,Partly Cloudy,290,2012-11-22 18:00:00
1:00 PM,78.8,59.0,51,-9999,6.2,WNW,16.1,-,N/A,,Scattered Clouds,290,2012-11-22 18:00:00
2:00 PM,75.2,59.0,57,-9999,6.2,WNW,16.1,-,N/A,,Scattered Clouds,300,2012-11-22 19:00:00
3:00 PM,73.4,59.0,61,29.95,6.2,NW,16.1,-,N/A,,Scattered Clouds,310,2012-11-22 20:00:00
4:00 PM,74,60,53,29.96,9,NNW,11.5,,,,Partly Cloudy,330,2012-11-22 21:00:00
4:00 PM,73.4,60.8,65,29.95,6.2,NNW,11.5,-,N/A,,Scattered Clouds,330,2012-11-22 21:00:00
5:00 PM,71.6,60.8,69,29.96,6.2,NW,11.5,-,N/A,,Scattered Clouds,310,2012-11-22 22:00:00
6:00 PM,73.4,59.0,61,29.98,6.2,WNW,15.0,-,N/A,,Scattered Clouds,300,2012-11-22 23:00:00
7:00 PM,73,58,50,29.99,9,WNW,13.8,,,,Partly Cloudy,300,2012-11-23 00:00:00
7:00 PM,73.4,59.0,61,29.99,6.2,WNW,13.8,-,N/A,,Scattered Clouds,300,2012-11-23 00:00:00